createdAt,value
2018-06-25T00:00:09.990Z,99.90
2018-06-25T00:02:38.542Z,99.90
2018-06-25T00:05:07.053Z,99.90
2018-06-25T00:07:35.617Z,99.90
2018-06-25T00:10:04.863Z,99.90
2018-06-25T00:12:33.394Z,99.90
2018-06-25T00:15:02.658Z,99.90
2018-06-25T00:17:31.201Z,99.90
2018-06-25T00:19:59.723Z,99.90
2018-06-25T00:22:28.254Z,99.90
2018-06-25T00:27:25.016Z,99.90
2018-06-25T00:32:21.761Z,99.90
2018-06-25T00:34:50.495Z,99.90
2018-06-25T00:37:19.041Z,99.90
2018-06-25T00:42:15.791Z,99.90
2018-06-25T00:44:44.313Z,99.90
2018-06-25T00:47:12.872Z,99.90
2018-06-25T00:59:47.400Z,99.90
2018-06-25T01:02:15.966Z,99.90
2018-06-25T01:04:44.525Z,99.90
2018-06-25T01:07:13.066Z,99.90
2018-06-25T01:09:41.597Z,99.90
2018-06-25T01:12:10.170Z,99.90
2018-06-25T01:14:38.753Z,99.90
2018-06-25T01:17:07.845Z,99.90
2018-06-25T01:19:36.681Z,99.90
2018-06-25T01:22:05.344Z,99.90
2018-06-25T01:27:02.142Z,99.90
2018-06-25T01:29:30.708Z,99.90
2018-06-25T01:31:59.275Z,99.90
2018-06-25T01:34:27.825Z,99.90
2018-06-25T01:36:56.462Z,99.90
2018-06-25T01:39:25.029Z,99.90
2018-06-25T01:44:21.869Z,99.90
2018-06-25T01:46:50.405Z,99.90
2018-06-25T01:49:19.022Z,99.90
2018-06-25T01:51:47.552Z,99.90
2018-06-25T01:54:16.259Z,99.90
2018-06-25T01:56:44.824Z,99.90
2018-06-25T01:59:13.403Z,99.90
2018-06-25T02:01:41.948Z,99.90
2018-06-25T02:04:10.521Z,99.90
2018-06-25T02:06:39.076Z,99.90
2018-06-25T02:09:10.767Z,99.90
2018-06-25T02:11:39.722Z,99.90
2018-06-25T02:14:08.288Z,99.90
2018-06-25T02:16:37.096Z,99.90
2018-06-25T02:19:06.750Z,99.90
2018-06-25T02:21:35.289Z,99.90
2018-06-25T02:24:03.918Z,99.90
2018-06-25T02:26:32.485Z,99.90
2018-06-25T02:29:01.085Z,99.90
2018-06-25T02:31:29.652Z,99.90
2018-06-25T02:33:58.649Z,99.90
2018-06-25T02:36:27.244Z,99.90
2018-06-25T02:38:56.653Z,99.90
2018-06-25T02:41:25.776Z,99.90
2018-06-25T02:46:22.568Z,99.90
2018-06-25T02:48:51.137Z,99.90
2018-06-25T02:51:19.663Z,99.90
2018-06-25T02:53:48.825Z,99.90
2018-06-25T02:56:17.949Z,99.90
2018-06-25T02:58:46.541Z,99.90
2018-06-25T03:01:15.089Z,99.90
2018-06-25T03:03:43.775Z,99.90
2018-06-25T03:06:12.329Z,99.90
2018-06-25T03:08:40.893Z,99.90
2018-06-25T03:11:09.453Z,99.90
2018-06-25T03:13:38.049Z,99.90
2018-06-25T03:16:06.768Z,99.90
2018-06-25T03:18:35.354Z,99.90
2018-06-25T03:21:04.517Z,99.90
2018-06-25T03:23:33.118Z,99.90
2018-06-25T03:26:01.875Z,99.90
2018-06-25T03:28:31.038Z,99.90
2018-06-25T03:30:59.602Z,99.90
2018-06-25T03:33:28.182Z,99.90
2018-06-25T03:35:56.722Z,99.90
2018-06-25T03:38:25.274Z,99.90
2018-06-25T03:43:22.823Z,99.90
2018-06-25T03:45:51.941Z,99.90
2018-06-25T03:48:20.490Z,99.90
2018-06-25T03:50:49.041Z,99.90
2018-06-25T03:53:18.781Z,99.90
2018-06-25T03:55:47.369Z,99.90
2018-06-25T03:58:15.963Z,99.90
2018-06-25T04:00:45.188Z,99.90
2018-06-25T04:08:10.148Z,99.90
2018-06-25T04:10:38.705Z,99.90
2018-06-25T04:15:35.482Z,99.90
2018-06-25T04:18:04.154Z,99.90
2018-06-25T04:20:32.721Z,99.90
2018-06-25T04:23:01.271Z,99.90
2018-06-25T04:25:29.826Z,99.90
2018-06-25T04:27:58.403Z,99.90
2018-06-25T04:30:26.959Z,99.90
2018-06-25T04:32:55.505Z,99.90
2018-06-25T04:35:24.090Z,99.90
2018-06-25T04:37:52.657Z,99.90
2018-06-25T04:40:21.243Z,99.90
2018-06-25T04:42:49.737Z,99.90
2018-06-25T04:45:18.305Z,99.90
2018-06-25T04:47:46.849Z,99.90
2018-06-25T04:50:15.413Z,99.90
2018-06-25T04:52:44.449Z,99.90
2018-06-25T04:55:13.040Z,99.90
2018-06-25T04:57:41.635Z,99.90
2018-06-25T05:00:10.213Z,99.90
2018-06-25T05:02:38.756Z,99.90
2018-06-25T05:05:08.048Z,99.90
2018-06-25T05:07:36.580Z,99.90
2018-06-25T05:10:05.152Z,99.90
2018-06-25T05:15:01.907Z,99.90
2018-06-25T05:17:30.453Z,99.90
2018-06-25T05:19:59.005Z,99.90
2018-06-25T05:22:27.554Z,99.90
2018-06-25T05:27:29.393Z,99.90
2018-06-25T05:29:58.015Z,99.90
2018-06-25T05:32:26.563Z,99.90
2018-06-25T05:34:55.231Z,99.90
2018-06-25T05:37:23.835Z,99.90
2018-06-25T05:39:52.453Z,99.90
2018-06-25T05:42:23.324Z,99.90
2018-06-25T05:44:53.114Z,99.90
2018-06-25T05:47:22.569Z,99.90
2018-06-25T05:49:51.361Z,99.90
2018-06-25T05:52:19.997Z,99.90
2018-06-25T05:57:16.853Z,99.90
2018-06-25T06:02:14.375Z,99.90
2018-06-25T06:04:44.599Z,99.90
2018-06-25T06:07:13.482Z,99.90
2018-06-25T06:09:42.174Z,99.90
2018-06-25T06:12:11.588Z,99.90
2018-06-25T06:14:43.391Z,99.90
2018-06-25T06:17:12.264Z,99.90
2018-06-25T06:19:41.762Z,99.90
2018-06-25T06:22:10.316Z,99.90
2018-06-25T06:24:38.945Z,99.90
2018-06-25T06:27:07.600Z,99.90
2018-06-25T06:29:36.169Z,99.90
2018-06-25T06:32:04.779Z,99.90
2018-06-25T06:34:33.651Z,99.90
2018-06-25T06:37:02.886Z,99.90
2018-06-25T06:39:33.722Z,99.90
2018-06-25T06:42:04.616Z,99.90
2018-06-25T06:44:33.813Z,99.90
2018-06-25T06:47:02.445Z,99.90
2018-06-25T06:49:31.658Z,99.90
2018-06-25T06:54:28.634Z,99.90
2018-06-25T06:56:57.478Z,99.90
2018-06-25T06:59:28.277Z,99.90
2018-06-25T07:01:56.859Z,99.90
2018-06-25T07:04:25.455Z,99.90
2018-06-25T07:06:54.047Z,99.90
2018-06-25T07:09:22.608Z,99.90
2018-06-25T07:11:51.219Z,99.90
2018-06-25T07:14:19.793Z,99.90
2018-06-25T07:16:48.461Z,99.90
2018-06-25T07:19:17.042Z,99.90
2018-06-25T07:24:14.206Z,99.90
2018-06-25T07:29:11.186Z,99.90
2018-06-25T07:31:39.818Z,99.90
2018-06-25T07:34:08.406Z,99.90
2018-06-25T07:36:37.025Z,99.90
2018-06-25T07:39:09.170Z,99.90
2018-06-25T07:41:38.049Z,99.90
2018-06-25T07:44:07.685Z,99.90
2018-06-25T07:46:36.691Z,99.90
2018-06-25T07:51:35.030Z,99.90
2018-06-25T07:54:03.714Z,99.70
2018-06-25T07:56:32.310Z,99.80
2018-06-25T07:59:01.974Z,99.70
2018-06-25T08:01:30.695Z,99.30
2018-06-25T08:03:59.596Z,98.70
2018-06-25T08:06:28.628Z,98.20
2018-06-25T08:08:57.281Z,98.70
2018-06-25T08:11:25.897Z,98.60
2018-06-25T08:13:54.660Z,97.50
2018-06-25T08:16:23.576Z,97.20
2018-06-25T08:18:52.167Z,97.50
2018-06-25T08:21:21.319Z,97.20
2018-06-25T08:23:50.609Z,97.40
2018-06-25T08:26:19.351Z,96.80
2018-06-25T08:28:47.993Z,97.50
2018-06-25T08:31:16.702Z,97.30
2018-06-25T08:33:46.769Z,97.90
2018-06-25T08:36:15.365Z,97.90
2018-06-25T08:38:44.092Z,98.20
2018-06-25T08:41:13.480Z,98.60
2018-06-25T08:43:42.093Z,98.90
2018-06-25T08:46:11.631Z,98.60
2018-06-25T08:51:09.180Z,98.20
2018-06-25T08:53:39.174Z,97.50
2018-06-25T08:56:08.703Z,97.20
2018-06-25T08:58:38.045Z,97.20
2018-06-25T09:01:06.646Z,96.90
2018-06-25T09:03:35.545Z,96.20
2018-06-25T09:06:04.124Z,96.00
2018-06-25T09:08:33.969Z,95.70
2018-06-25T09:11:03.270Z,95.50
2018-06-25T09:13:31.886Z,95.40
2018-06-25T09:18:28.735Z,94.70
2018-06-25T09:20:58.584Z,94.50
2018-06-25T09:23:27.173Z,93.80
2018-06-25T09:25:55.720Z,93.80
2018-06-25T09:28:24.308Z,94.10
2018-06-25T09:30:55.637Z,94.50
2018-06-25T09:33:27.661Z,94.60
2018-06-25T09:38:25.281Z,93.90
2018-06-25T09:40:54.513Z,94.20
2018-06-25T09:43:23.093Z,94.50
2018-06-25T09:48:20.786Z,94.90
2018-06-25T09:53:18.410Z,94.00
2018-06-25T09:55:47.061Z,93.10
2018-06-25T09:58:15.888Z,93.10
2018-06-25T10:00:49.789Z,92.80
2018-06-25T10:03:20.012Z,92.90
2018-06-25T10:05:48.626Z,93.50
2018-06-25T10:08:17.206Z,93.50
2018-06-25T10:10:46.570Z,92.80
2018-06-25T10:13:15.799Z,92.50
2018-06-25T10:15:44.409Z,92.20
2018-06-25T10:18:14.653Z,92.80
2018-06-25T10:20:43.792Z,91.90
2018-06-25T10:23:12.385Z,91.30
2018-06-25T10:25:41.670Z,90.90
2018-06-25T10:28:10.457Z,90.80
2018-06-25T10:30:39.021Z,91.50
2018-06-25T10:33:07.722Z,91.80
2018-06-25T10:35:36.304Z,92.20
2018-06-25T10:38:05.026Z,91.90
2018-06-25T10:40:33.795Z,91.70
2018-06-25T10:43:02.465Z,92.10
2018-06-25T10:45:31.017Z,91.70
2018-06-25T10:52:57.349Z,91.90
2018-06-25T10:55:29.080Z,91.90
2018-06-25T10:58:00.627Z,91.90
2018-06-25T11:00:29.995Z,92.80
2018-06-25T11:02:58.577Z,93.90
2018-06-25T11:05:27.146Z,93.70
2018-06-25T11:07:55.768Z,94.00
2018-06-25T11:12:53.182Z,93.40
2018-06-25T11:15:21.754Z,92.60
2018-06-25T11:17:50.444Z,92.20
2018-06-25T11:20:19.157Z,91.60
2018-06-25T11:22:47.741Z,91.50
2018-06-25T11:25:16.463Z,91.20
2018-06-25T11:27:45.137Z,90.90
2018-06-25T11:30:13.730Z,90.10
2018-06-25T11:35:10.662Z,89.30
2018-06-25T11:37:40.044Z,90.20
2018-06-25T11:40:09.126Z,89.30
2018-06-25T11:42:37.690Z,88.70
2018-06-25T11:45:07.010Z,89.90
2018-06-25T11:47:35.611Z,91.30
2018-06-25T11:50:04.676Z,90.80
2018-06-25T11:52:33.356Z,91.20
2018-06-25T11:57:30.861Z,90.70
2018-06-25T12:00:00.936Z,90.50
2018-06-25T12:02:30.282Z,88.50
2018-06-25T12:04:59.416Z,85.10
2018-06-25T12:07:28.190Z,85.00
2018-06-25T12:09:56.798Z,87.70
2018-06-25T12:12:25.373Z,88.30
2018-06-25T12:14:54.193Z,89.00
2018-06-25T12:19:51.289Z,90.30
2018-06-25T12:22:20.562Z,90.30
2018-06-25T12:27:18.526Z,89.00
2018-06-25T12:29:48.170Z,88.30
2018-06-25T12:32:16.790Z,86.90
2018-06-25T12:34:45.444Z,84.10
2018-06-25T12:37:15.283Z,84.70
2018-06-25T12:42:12.301Z,86.00
2018-06-25T12:44:40.936Z,86.20
2018-06-25T12:47:09.491Z,84.40
2018-06-25T12:49:38.117Z,87.10
2018-06-25T12:52:06.997Z,86.00
2018-06-25T12:54:35.729Z,87.90
2018-06-25T12:57:04.408Z,87.60
2018-06-25T12:59:33.585Z,87.70
2018-06-25T13:02:02.261Z,87.50
2018-06-25T13:04:30.831Z,84.70
2018-06-25T13:06:59.750Z,81.80
2018-06-25T13:09:28.502Z,79.40
2018-06-25T13:11:57.073Z,77.50
2018-06-25T13:16:57.333Z,86.20
2018-06-25T13:19:25.899Z,82.10
2018-06-25T13:21:54.483Z,83.10
2018-06-25T13:26:51.373Z,82.70
2018-06-25T13:29:19.978Z,87.50
2018-06-25T13:31:48.808Z,88.10
2018-06-25T13:34:17.396Z,86.50
2018-06-25T13:36:46.059Z,88.30
2018-06-25T13:39:14.670Z,89.00
2018-06-25T13:41:43.256Z,88.60
2018-06-25T13:46:40.100Z,86.90
2018-06-25T13:49:08.694Z,86.00
2018-06-25T13:54:05.604Z,85.00
2018-06-25T13:56:34.272Z,84.80
2018-06-25T13:59:02.868Z,84.50
2018-06-25T14:01:31.484Z,83.10
2018-06-25T14:04:00.098Z,81.30
2018-06-25T14:08:57.497Z,81.90
2018-06-25T14:11:26.824Z,80.50
2018-06-25T14:13:55.489Z,82.90
2018-06-25T14:16:24.205Z,87.20
2018-06-25T14:18:53.533Z,88.60
2018-06-25T14:21:22.613Z,89.30
2018-06-25T14:23:56.548Z,90.30
2018-06-25T14:26:29.387Z,90.90
2018-06-25T14:28:58.006Z,91.10
2018-06-25T14:31:28.415Z,90.80
2018-06-25T14:34:02.314Z,90.60
2018-06-25T14:36:32.278Z,91.20
2018-06-25T14:39:01.398Z,90.90
2018-06-25T14:41:29.963Z,90.00
2018-06-25T14:46:27.368Z,88.50
2018-06-25T14:48:56.257Z,87.20
2018-06-25T14:51:24.868Z,85.80
2018-06-25T14:53:53.447Z,85.80
2018-06-25T14:56:22.613Z,82.10
2018-06-25T14:58:52.029Z,81.00
2018-06-25T15:01:21.689Z,85.40
2018-06-25T15:03:50.225Z,86.20
2018-06-25T15:06:19.170Z,86.10
2018-06-25T15:08:47.738Z,86.90
2018-06-25T15:11:16.397Z,87.40
2018-06-25T15:13:45.502Z,87.50
2018-06-25T15:16:14.673Z,87.60
2018-06-25T15:21:12.665Z,86.00
2018-06-25T15:23:41.472Z,85.50
2018-06-25T15:26:10.123Z,86.00
2018-06-25T15:31:06.969Z,88.60
2018-06-25T15:33:35.517Z,89.10
2018-06-25T15:36:04.077Z,90.10
2018-06-25T15:38:32.615Z,89.40
2018-06-25T15:41:01.217Z,90.10
2018-06-25T15:45:58.122Z,88.10
2018-06-25T15:48:26.656Z,86.60
2018-06-25T15:53:23.449Z,84.10
2018-06-25T15:55:51.993Z,85.70
2018-06-25T15:58:20.595Z,83.30
2018-06-25T16:00:49.393Z,83.00
2018-06-25T16:03:17.988Z,82.60
2018-06-25T16:05:46.569Z,83.40
2018-06-25T16:08:15.181Z,83.30
2018-06-25T16:10:43.736Z,82.50
2018-06-25T16:13:12.354Z,83.10
2018-06-25T16:15:40.908Z,82.80
2018-06-25T16:18:09.454Z,83.30
2018-06-25T16:20:38.026Z,82.00
2018-06-25T16:23:06.639Z,82.00
2018-06-25T16:28:03.484Z,82.30
2018-06-25T16:30:32.043Z,82.70
2018-06-25T16:33:01.023Z,83.30
2018-06-25T16:35:29.598Z,83.40
2018-06-25T16:37:58.797Z,82.10
2018-06-25T16:40:28.438Z,81.80
2018-06-25T16:42:57.016Z,81.70
2018-06-25T16:45:25.605Z,83.90
2018-06-25T16:47:54.258Z,84.00
2018-06-25T16:50:24.073Z,85.60
2018-06-25T16:52:53.158Z,87.00
2018-06-25T16:55:21.728Z,87.50
2018-06-25T16:57:50.785Z,88.50
2018-06-25T17:00:19.374Z,87.90
2018-06-25T17:02:48.522Z,88.20
2018-06-25T17:05:17.108Z,88.40
2018-06-25T17:07:45.686Z,87.90
2018-06-25T17:10:14.713Z,88.10
2018-06-25T17:12:43.304Z,89.10
2018-06-25T17:15:11.953Z,88.30
2018-06-25T17:17:41.336Z,87.90
2018-06-25T17:22:38.157Z,90.00
2018-06-25T17:25:06.741Z,90.10
2018-06-25T17:27:35.326Z,90.30
2018-06-25T17:30:04.826Z,90.60
2018-06-25T17:32:34.182Z,90.70
2018-06-25T17:35:02.756Z,90.80
2018-06-25T17:39:59.530Z,91.00
2018-06-25T17:42:28.586Z,90.80
2018-06-25T17:44:57.137Z,90.40
2018-06-25T17:47:25.771Z,90.50
2018-06-25T17:49:54.333Z,90.80
2018-06-25T17:52:22.957Z,91.30
2018-06-25T17:57:19.763Z,91.40
2018-06-25T17:59:48.963Z,91.80
2018-06-25T18:02:18.351Z,92.40
2018-06-25T18:04:46.882Z,93.00
2018-06-25T18:07:16.308Z,93.70
2018-06-25T18:09:45.564Z,93.90
2018-06-25T18:12:14.432Z,94.10
2018-06-25T18:14:44.024Z,94.30
2018-06-25T18:17:12.589Z,94.20
2018-06-25T18:22:09.790Z,94.20
2018-06-25T18:24:38.952Z,94.50
2018-06-25T18:27:07.569Z,94.80
2018-06-25T18:29:36.741Z,95.00
2018-06-25T18:32:05.294Z,95.40
2018-06-25T18:34:33.878Z,95.50
2018-06-25T18:37:02.426Z,95.70
2018-06-25T18:39:32.185Z,95.90
2018-06-25T18:42:01.219Z,95.90
2018-06-25T18:44:30.386Z,95.90
2018-06-25T18:49:27.185Z,96.40
2018-06-25T18:51:56.386Z,96.10
2018-06-25T18:54:24.953Z,96.20
2018-06-25T18:56:54.013Z,96.50
2018-06-25T18:59:22.598Z,96.80
2018-06-25T19:01:53.358Z,97.20
2018-06-25T19:04:22.273Z,97.40
2018-06-25T19:06:50.940Z,97.50
2018-06-25T19:09:19.538Z,97.60
2018-06-25T19:11:48.670Z,97.70
2018-06-25T19:14:17.278Z,97.80
2018-06-25T19:16:46.838Z,97.80
2018-06-25T19:19:15.759Z,98.00
2018-06-25T19:21:45.691Z,97.90
2018-06-25T19:24:14.921Z,98.10
2018-06-25T19:26:43.524Z,98.10
2018-06-25T19:29:12.144Z,98.50
2018-06-25T19:31:40.750Z,98.40
2018-06-25T19:34:09.444Z,98.50
2018-06-25T19:36:37.941Z,98.70
2018-06-25T19:39:09.765Z,98.80
2018-06-25T19:41:38.558Z,98.80
2018-06-25T19:44:07.544Z,99.00
2018-06-25T19:46:37.028Z,99.10
2018-06-25T19:49:06.074Z,99.10
2018-06-25T19:51:34.607Z,99.20
2018-06-25T19:54:03.210Z,99.60
2018-06-25T19:56:31.828Z,99.50
2018-06-25T20:01:28.610Z,99.70
2018-06-25T20:06:25.403Z,99.90
2018-06-25T20:08:53.982Z,99.90
2018-06-25T20:11:22.682Z,99.90
2018-06-25T20:13:51.277Z,99.90
2018-06-25T20:16:20.438Z,99.90
2018-06-25T20:18:49.040Z,99.90
2018-06-25T20:21:18.371Z,99.90
2018-06-25T20:23:46.985Z,99.90
2018-06-25T20:26:15.621Z,99.90
2018-06-25T20:28:44.929Z,99.90
2018-06-25T20:31:13.541Z,99.90
2018-06-25T20:33:42.123Z,99.90
2018-06-25T20:36:10.763Z,99.90
2018-06-25T20:38:39.344Z,99.90
2018-06-25T20:41:08.024Z,99.90
2018-06-25T20:43:36.943Z,99.90
2018-06-25T20:46:05.607Z,99.90
2018-06-25T20:48:34.501Z,99.90
2018-06-25T20:51:03.096Z,99.90
2018-06-25T20:53:31.863Z,99.90
2018-06-25T20:56:00.684Z,99.90
2018-06-25T20:58:29.293Z,99.90
2018-06-25T21:00:57.939Z,99.90
2018-06-25T21:03:26.593Z,99.90
2018-06-25T21:05:55.157Z,99.90
2018-06-25T21:08:23.743Z,99.90
2018-06-25T21:10:52.945Z,99.90
2018-06-25T21:13:21.474Z,99.90
2018-06-25T21:15:50.109Z,99.90
2018-06-25T21:18:19.855Z,99.90
2018-06-25T21:20:48.458Z,99.90
2018-06-25T21:23:17.084Z,99.90
2018-06-25T21:25:46.339Z,99.90
2018-06-25T21:28:15.687Z,99.90
2018-06-25T21:30:44.528Z,99.90
2018-06-25T21:33:13.728Z,99.90
2018-06-25T21:35:43.234Z,99.90
2018-06-25T21:38:11.755Z,99.90
2018-06-25T21:40:40.379Z,99.90
2018-06-25T21:45:37.853Z,99.90
2018-06-25T21:48:06.514Z,99.90
2018-06-25T21:50:35.045Z,99.90
2018-06-25T21:53:03.675Z,99.90
2018-06-25T21:55:32.246Z,99.90
2018-06-25T21:58:01.742Z,99.90
2018-06-25T22:01:01.374Z,99.90
2018-06-25T22:03:29.960Z,99.90
2018-06-25T22:05:58.500Z,99.90
2018-06-25T22:08:27.082Z,99.90
2018-06-25T22:10:56.544Z,99.90
2018-06-25T22:13:25.113Z,99.90
2018-06-25T22:15:53.727Z,99.90
2018-06-25T22:23:19.701Z,99.90
2018-06-25T22:25:48.233Z,99.90
2018-06-25T22:28:16.878Z,99.90
2018-06-25T22:30:46.897Z,99.90
2018-06-25T22:33:16.139Z,99.90
2018-06-25T22:35:44.750Z,99.90
2018-06-25T22:38:13.657Z,99.90
2018-06-25T22:40:42.249Z,99.90
2018-06-25T22:43:11.277Z,99.90
2018-06-25T22:45:39.859Z,99.90
2018-06-25T22:48:08.457Z,99.90
2018-06-25T22:50:37.030Z,99.90
2018-06-25T22:53:06.530Z,99.90
2018-06-25T22:55:36.373Z,99.90
2018-06-25T22:58:05.493Z,99.90
2018-06-25T23:00:34.380Z,99.90
2018-06-25T23:03:03.579Z,99.90
2018-06-25T23:05:33.137Z,99.90
2018-06-25T23:08:01.761Z,99.90
2018-06-25T23:10:30.351Z,99.90
2018-06-25T23:15:27.193Z,99.90
2018-06-25T23:17:55.761Z,99.90
2018-06-25T23:20:25.013Z,99.90
2018-06-25T23:25:26.466Z,99.90
2018-06-25T23:27:55.038Z,99.90
2018-06-25T23:30:23.613Z,99.90
2018-06-25T23:32:52.197Z,99.90
2018-06-25T23:35:20.765Z,99.90
2018-06-25T23:37:49.959Z,99.90
2018-06-25T23:40:18.541Z,99.90
2018-06-25T23:42:47.112Z,99.90
2018-06-25T23:45:15.722Z,99.90
2018-06-25T23:47:44.359Z,99.90
2018-06-25T23:50:12.916Z,99.90
2018-06-25T23:52:48.034Z,99.90
2018-06-25T23:55:16.853Z,99.90
2018-06-25T23:57:45.546Z,99.90
